Time;durP1;ratioP1;P1;durP2;ratioP2;P2;SDS_P1;SDS_P2;PMS_P1;PMS_P2;Temp;Humidity;BMP_temperature;BMP_pressure;BME280_temperature;BME280_humidity;BME280_pressure;Samples;Min_cycle;Max_cycle;Signal;HPM_P1;HPM_P2
2021/11/04 00:00:43;;;;;;;23.70;7.10;;;;;;;10.17;78.87;99103.55;113113;1190;22422;-61
2021/11/04 00:03:19;;;;;;;23.40;7.80;;;;;;;10.15;79.03;99098.06;113257;1196;25084;-59
2021/11/04 00:05:50;;;;;;;24.60;7.90;;;;;;;10.12;79.25;99101.35;113231;1180;24050;-60
2021/11/04 00:08:22;;;;;;;20.50;7.90;;;;;;;10.09;79.53;99100.60;113176;1189;25098;-59
2021/11/04 00:10:54;;;;;;;24.50;7.70;;;;;;;10.05;79.64;99101.00;113237;1196;22434;-60
2021/11/04 00:13:25;;;;;;;25.20;8.50;;;;;;;10.03;79.97;99104.59;113540;1190;22443;-59
2021/11/04 00:15:56;;;;;;;24.00;8.90;;;;;;;9.98;79.97;99103.45;113166;1196;22433;-60
2021/11/04 00:18:27;;;;;;;27.20;8.60;;;;;;;9.96;80.11;99102.55;113422;1196;24069;-60
2021/11/04 00:20:58;;;;;;;23.00;8.00;;;;;;;9.93;80.24;99099.19;113474;1196;24140;-59
2021/11/04 00:23:28;;;;;;;22.90;8.60;;;;;;;9.90;80.32;99100.60;113605;1190;26277;-60
2021/11/04 00:26:00;;;;;;;29.60;8.70;;;;;;;9.90;80.45;99101.59;113373;1196;24182;-61
2021/11/04 00:28:31;;;;;;;26.80;8.90;;;;;;;9.89;80.51;99100.34;113393;1196;22436;-60
2021/11/04 00:31:02;;;;;;;29.40;10.40;;;;;;;9.87;80.56;99098.75;113126;1196;22529;-60
2021/11/04 00:33:35;;;;;;;32.00;11.70;;;;;;;9.85;80.54;99096.63;113158;1190;22423;-62
2021/11/04 00:36:07;;;;;;;34.50;13.00;;;;;;;9.83;80.74;99092.50;113225;1195;22439;-60
2021/11/04 00:38:38;;;;;;;36.00;13.70;;;;;;;9.81;80.82;99086.38;113245;1196;22478;-60
2021/11/04 00:41:09;;;;;;;37.30;13.70;;;;;;;9.79;80.86;99074.61;113211;1196;25136;-59
2021/11/04 00:43:40;;;;;;;37.80;13.00;;;;;;;9.78;80.75;99065.69;113336;1196;22519;-60
2021/11/04 00:46:11;;;;;;;27.80;10.60;;;;;;;9.77;80.89;99060.81;113133;1189;25104;-60
2021/11/04 00:48:42;;;;;;;34.00;11.10;;;;;;;9.76;80.92;99060.88;113152;1196;22438;-60
2021/11/04 00:51:13;;;;;;;31.40;12.80;;;;;;;9.75;80.86;99054.77;113169;1189;22450;-60
2021/11/04 00:53:43;;;;;;;29.10;10.40;;;;;;;9.75;81.18;99051.39;113149;1196;22427;-61
2021/11/04 00:56:15;;;;;;;24.70;9.40;;;;;;;9.73;81.08;99043.22;113185;1190;25104;-61
2021/11/04 00:58:49;;;;;;;34.50;9.90;;;;;;;9.72;81.15;99035.61;113212;1196;22422;-60
2021/11/04 01:01:21;;;;;;;29.70;10.20;;;;;;;9.71;81.18;99027.11;113155;1196;22426;-59
2021/11/04 01:03:53;;;;;;;28.20;9.30;;;;;;;9.71;81.35;99025.48;113179;1196;22415;-60
2021/11/04 01:06:25;;;;;;;29.70;9.00;;;;;;;9.69;81.41;99015.80;113174;1190;22546;-61
2021/11/04 01:08:56;;;;;;;24.10;9.60;;;;;;;9.67;81.61;99005.83;113151;1196;22421;-61
2021/11/04 01:11:27;;;;;;;24.50;8.90;;;;;;;9.66;81.68;98999.52;113153;1190;26338;-60
2021/11/04 01:13:58;;;;;;;25.90;9.20;;;;;;;9.65;81.68;99004.09;113170;1196;24162;-61
2021/11/04 01:16:29;;;;;;;26.30;9.20;;;;;;;9.63;82.05;99002.52;113463;1190;25132;-60
2021/11/04 01:19:00;;;;;;;23.90;8.80;;;;;;;9.61;81.97;98994.30;113196;1189;22441;-60
2021/11/04 01:21:31;;;;;;;23.70;8.80;;;;;;;9.60;82.05;98988.21;113180;1196;24102;-60
2021/11/04 01:24:01;;;;;;;24.60;9.30;;;;;;;9.60;82.17;98978.09;113269;1196;23643;-60
2021/11/04 01:26:32;;;;;;;25.40;9.80;;;;;;;9.60;82.18;98982.03;113227;1190;24999;-60
2021/11/04 01:29:03;;;;;;;24.90;10.50;;;;;;;9.59;82.26;98978.44;113236;1196;24027;-59
2021/11/04 01:31:34;;;;;;;23.80;9.30;;;;;;;9.59;82.28;98987.35;113228;1196;25230;-60
2021/11/04 01:34:06;;;;;;;25.40;9.80;;;;;;;9.59;82.37;98988.00;113137;1193;23357;-61
2021/11/04 01:36:37;;;;;;;25.60;9.00;;;;;;;9.59;82.51;98980.51;113283;1196;22428;-60
2021/11/04 01:39:08;;;;;;;25.70;9.50;;;;;;;9.59;82.55;98977.07;113225;1196;22411;-59
2021/11/04 01:41:39;;;;;;;23.60;9.30;;;;;;;9.58;82.79;98976.25;113197;1190;22429;-60
2021/11/04 01:44:10;;;;;;;23.10;9.00;;;;;;;9.58;82.94;98973.92;113215;1196;22539;-59
2021/11/04 01:46:41;;;;;;;25.40;9.40;;;;;;;9.57;82.75;98965.61;113233;1196;22475;-61
2021/11/04 01:49:12;;;;;;;20.90;8.60;;;;;;;9.57;82.81;98960.49;113051;1190;22398;-61
2021/11/04 01:51:43;;;;;;;26.80;9.20;;;;;;;9.57;82.90;98961.52;113284;1196;25107;-60
2021/11/04 01:54:15;;;;;;;26.80;9.30;;;;;;;9.56;83.12;98954.42;113291;1196;22430;-60
2021/11/04 01:56:47;;;;;;;23.80;9.90;;;;;;;9.56;83.09;98947.88;113206;1196;22433;-60
2021/11/04 01:59:18;;;;;;;23.20;9.00;;;;;;;9.56;83.15;98945.84;113074;1190;22548;-60
2021/11/04 02:01:51;;;;;;;23.70;9.90;;;;;;;9.55;83.12;98940.69;113273;1196;24177;-60
2021/11/04 02:04:27;;;;;;;26.10;9.20;;;;;;;9.55;83.24;98942.05;113180;1196;24107;-60
2021/11/04 02:07:06;;;;;;;24.00;9.80;;;;;;;9.54;83.46;98944.83;113418;1196;22656;-59
2021/11/04 02:09:41;;;;;;;24.00;9.20;;;;;;;9.52;83.54;98941.58;113268;1196;23114;-61
2021/11/04 02:12:28;;;;;;;24.20;10.50;;;;;;;9.50;83.55;98945.58;113363;1196;22997;-59
2021/11/04 02:15:01;;;;;;;22.60;8.80;;;;;;;9.49;83.58;98943.86;113337;1196;22547;-59
2021/11/04 02:17:36;;;;;;;24.70;9.30;;;;;;;9.49;83.69;98941.98;113538;1190;24080;-59
2021/11/04 02:20:12;;;;;;;25.20;9.10;;;;;;;9.47;83.74;98932.62;113162;1196;24618;-60
2021/11/04 02:22:56;;;;;;;23.60;8.90;;;;;;;9.45;83.80;98924.86;113216;1196;22471;-60
2021/11/04 02:25:30;;;;;;;25.50;9.50;;;;;;;9.44;83.93;98921.16;113252;1196;25123;-60
2021/11/04 02:28:06;;;;;;;24.90;9.90;;;;;;;9.43;83.98;98909.66;113229;1195;22458;-60
2021/11/04 02:30:37;;;;;;;21.40;8.10;;;;;;;9.43;84.02;98905.96;113271;1196;24160;-60
2021/11/04 02:33:11;;;;;;;21.20;8.80;;;;;;;9.42;84.17;98905.61;113355;1196;24068;-62
2021/11/04 02:35:48;;;;;;;23.30;8.70;;;;;;;9.42;84.13;98908.08;113193;1196;25134;-62
2021/11/04 02:38:21;;;;;;;23.00;9.50;;;;;;;9.41;84.21;98904.19;113352;1196;22417;-60
2021/11/04 02:40:55;;;;;;;24.40;9.30;;;;;;;9.40;84.37;98904.17;113321;1196;22441;-60
2021/11/04 02:43:27;;;;;;;25.40;8.70;;;;;;;9.38;84.61;98907.31;113213;1196;22440;-60
2021/11/04 02:45:59;;;;;;;24.30;8.30;;;;;;;9.36;84.62;98911.52;113305;1196;22427;-61
2021/11/04 02:48:31;;;;;;;21.50;8.90;;;;;;;9.35;84.66;98907.66;113206;1189;22434;-60
2021/11/04 02:51:02;;;;;;;24.40;8.80;;;;;;;9.35;84.80;98905.64;113210;1190;22529;-59
2021/11/04 02:53:33;;;;;;;25.60;10.30;;;;;;;9.34;84.69;98898.34;113338;1196;22431;-60
2021/11/04 02:56:04;;;;;;;24.80;10.80;;;;;;;9.35;84.73;98892.31;113201;1196;24521;-60
2021/11/04 02:58:35;;;;;;;22.90;8.80;;;;;;;9.36;84.81;98882.95;113323;1189;22434;-61
2021/11/04 03:01:07;;;;;;;22.90;9.60;;;;;;;9.36;85.04;98880.47;113198;1196;26147;-63
2021/11/04 03:03:38;;;;;;;22.90;9.10;;;;;;;9.35;85.08;98870.34;113187;1196;22416;-60
2021/11/04 03:06:09;;;;;;;25.80;10.00;;;;;;;9.36;85.15;98871.40;113451;1196;24068;-60
2021/11/04 03:08:40;;;;;;;27.50;10.00;;;;;;;9.36;85.23;98866.91;113378;1190;25120;-60
2021/11/04 03:11:10;;;;;;;25.20;9.80;;;;;;;9.35;85.23;98857.48;113355;1190;22773;-60
2021/11/04 03:13:42;;;;;;;23.00;9.00;;;;;;;9.35;85.38;98846.79;113462;1196;24317;-61
2021/11/04 03:16:15;;;;;;;23.30;9.40;;;;;;;9.35;85.43;98833.98;113771;1196;22892;-61
2021/11/04 03:18:46;;;;;;;21.10;8.80;;;;;;;9.36;85.62;98834.23;113488;1196;22429;-61
2021/11/04 03:21:17;;;;;;;19.30;7.90;;;;;;;9.36;85.81;98841.02;113514;1196;22443;-60
2021/11/04 03:23:48;;;;;;;24.60;9.90;;;;;;;9.35;85.77;98842.59;113231;1196;24128;-60
2021/11/04 03:26:22;;;;;;;28.50;9.70;;;;;;;9.35;85.94;98838.59;113243;1180;24047;-60
2021/11/04 03:28:54;;;;;;;24.40;8.80;;;;;;;9.36;85.82;98831.91;113432;1196;25020;-60
2021/11/04 03:31:26;;;;;;;21.50;8.90;;;;;;;9.38;85.97;98837.23;113667;1189;24064;-60
2021/11/04 03:33:57;;;;;;;24.80;9.70;;;;;;;9.39;86.01;98836.77;113280;1188;26650;-60
2021/11/04 03:36:29;;;;;;;22.70;9.80;;;;;;;9.39;86.04;98836.47;113188;1196;22411;-62
2021/11/04 03:39:01;;;;;;;23.80;9.50;;;;;;;9.40;86.19;98842.50;113410;1196;23698;-60
2021/11/04 03:41:35;;;;;;;18.40;8.60;;;;;;;9.40;86.16;98846.70;113434;1196;22430;-60
2021/11/04 03:44:07;;;;;;;19.70;8.00;;;;;;;9.40;86.17;98846.60;113259;1196;22685;-60
2021/11/04 03:46:38;;;;;;;23.30;7.60;;;;;;;9.40;86.19;98841.55;113189;1196;22447;-61
2021/11/04 03:49:10;;;;;;;22.90;8.30;;;;;;;9.40;86.26;98832.36;113536;1190;25067;-60
2021/11/04 03:51:43;;;;;;;24.00;8.10;;;;;;;9.40;86.27;98832.83;113235;1196;22420;-60
2021/11/04 03:54:14;;;;;;;20.70;8.00;;;;;;;9.41;86.21;98826.40;113248;1181;24065;-60
2021/11/04 03:56:46;;;;;;;19.30;7.80;;;;;;;9.43;86.15;98822.41;113300;1196;22481;-61
2021/11/04 03:59:17;;;;;;;28.30;8.40;;;;;;;9.44;86.26;98821.52;113178;1196;23850;-60
2021/11/04 04:01:50;;;;;;;19.90;7.40;;;;;;;9.44;86.14;98812.42;113138;1196;22885;-61
2021/11/04 04:04:21;;;;;;;21.10;7.60;;;;;;;9.45;86.06;98802.70;113215;1196;22417;-60
2021/11/04 04:06:55;;;;;;;21.10;7.20;;;;;;;9.48;86.04;98794.80;113459;1195;22424;-60
2021/11/04 04:09:27;;;;;;;19.30;6.90;;;;;;;9.49;86.14;98793.84;113702;1196;22435;-60
2021/11/04 04:11:59;;;;;;;18.70;7.60;;;;;;;9.50;86.16;98796.21;113230;1196;25886;-60
2021/11/04 04:14:30;;;;;;;18.90;6.50;;;;;;;9.51;86.00;98790.05;113166;1190;24114;-62
2021/11/04 04:17:01;;;;;;;18.30;7.40;;;;;;;9.52;86.03;98781.13;113197;1196;22553;-60
2021/11/04 04:19:32;;;;;;;25.30;8.40;;;;;;;9.53;86.06;98785.38;113253;1196;22415;-60
2021/11/04 04:22:04;;;;;;;20.40;7.30;;;;;;;9.52;86.03;98782.54;113267;1196;25128;-60
2021/11/04 04:24:35;;;;;;;20.00;6.00;;;;;;;9.53;86.10;98771.49;113490;1196;22434;-62
2021/11/04 04:27:08;;;;;;;19.40;7.00;;;;;;;9.54;86.09;98760.45;113558;1196;24056;-61
2021/11/04 04:29:38;;;;;;;16.70;5.80;;;;;;;9.54;86.10;98755.73;113489;1196;22440;-61
2021/11/04 04:32:10;;;;;;;16.90;6.40;;;;;;;9.54;86.20;98755.23;113220;1190;22430;-60
2021/11/04 04:34:41;;;;;;;19.20;7.30;;;;;;;9.55;86.04;98746.67;113426;1196;25057;-61
2021/11/04 04:37:15;;;;;;;21.50;9.60;;;;;;;9.55;86.09;98741.81;113247;1190;22434;-62
2021/11/04 04:39:45;;;;;;;14.70;5.90;;;;;;;9.55;86.18;98741.96;113159;1196;22441;-60
2021/11/04 04:42:16;;;;;;;19.30;7.60;;;;;;;9.55;86.11;98735.08;113234;1196;22437;-60
2021/11/04 04:44:48;;;;;;;21.00;7.80;;;;;;;9.55;86.15;98732.04;113198;1195;23174;-60
2021/11/04 04:47:19;;;;;;;17.70;8.10;;;;;;;9.55;86.40;98725.91;113275;1190;25041;-60
2021/11/04 04:49:50;;;;;;;19.20;8.10;;;;;;;9.55;86.07;98713.65;113247;1196;22428;-60
2021/11/04 04:52:20;;;;;;;23.70;7.90;;;;;;;9.56;86.14;98713.19;113100;1196;22430;-61
2021/11/04 04:54:52;;;;;;;21.30;9.10;;;;;;;9.56;86.37;98711.02;113075;1196;22484;-60
2021/11/04 04:57:23;;;;;;;21.90;9.10;;;;;;;9.57;86.39;98707.02;113330;1196;25242;-62
2021/11/04 04:59:55;;;;;;;23.30;8.90;;;;;;;9.57;86.27;98693.44;113162;1196;25010;-61
2021/11/04 05:02:27;;;;;;;23.70;9.20;;;;;;;9.57;86.42;98683.91;113317;1190;22537;-60
2021/11/04 05:04:58;;;;;;;23.40;8.80;;;;;;;9.57;86.32;98672.27;113220;1196;22529;-60
2021/11/04 05:07:29;;;;;;;25.60;9.30;;;;;;;9.58;86.32;98674.90;113103;1189;22765;-61
2021/11/04 05:10:01;;;;;;;23.00;9.70;;;;;;;9.59;86.37;98670.99;113072;1197;22987;-60
2021/11/04 05:12:32;;;;;;;22.60;8.90;;;;;;;9.61;86.43;98666.48;113221;1196;22429;-61
2021/11/04 05:15:03;;;;;;;24.10;9.60;;;;;;;9.61;86.34;98665.27;113188;1196;25119;-61
2021/11/04 05:17:35;;;;;;;21.40;8.80;;;;;;;9.62;86.23;98658.23;113175;1196;25895;-60
2021/11/04 05:20:09;;;;;;;21.20;9.60;;;;;;;9.62;86.22;98646.88;113233;1180;24056;-58
2021/11/04 05:22:40;;;;;;;25.50;9.80;;;;;;;9.63;86.15;98653.25;113487;1190;23128;-60
2021/11/04 05:25:11;;;;;;;25.00;10.30;;;;;;;9.64;86.22;98651.08;113042;1190;25109;-57
2021/11/04 05:27:47;;;;;;;28.70;15.20;;;;;;;9.64;86.12;98645.70;113111;1190;22546;-59
2021/11/04 05:30:19;;;;;;;28.40;12.10;;;;;;;9.64;86.31;98641.80;113567;1196;22454;-62
2021/11/04 05:32:51;;;;;;;25.70;12.90;;;;;;;9.64;86.34;98635.92;113192;1196;22426;-61
2021/11/04 05:35:22;;;;;;;38.00;19.10;;;;;;;9.64;86.32;98634.96;116957;1194;24934;-61
2021/11/04 05:37:53;;;;;;;37.80;20.40;;;;;;;9.66;86.35;98635.41;113261;1190;22440;-60
2021/11/04 05:40:25;;;;;;;32.90;16.40;;;;;;;9.67;86.28;98629.02;113079;1190;22433;-60
2021/11/04 05:42:56;;;;;;;26.60;14.40;;;;;;;9.67;86.42;98621.63;113187;1196;22438;-60
2021/11/04 05:45:27;;;;;;;28.00;14.10;;;;;;;9.67;86.46;98624.36;113304;1196;22436;-59
2021/11/04 05:47:58;;;;;;;25.50;13.00;;;;;;;9.67;86.41;98627.96;113288;1195;22418;-59
2021/11/04 05:50:29;;;;;;;27.60;14.20;;;;;;;9.67;86.57;98624.05;113393;1188;22408;-59
2021/11/04 05:53:01;;;;;;;28.70;15.60;;;;;;;9.67;86.46;98617.83;113222;1195;22442;-60
2021/11/04 05:55:31;;;;;;;30.30;16.10;;;;;;;9.68;86.47;98616.24;113682;1195;24087;-59
2021/11/04 05:58:02;;;;;;;26.40;12.90;;;;;;;9.68;86.45;98616.81;113262;1190;25431;-59
2021/11/04 06:00:34;;;;;;;23.50;10.90;;;;;;;9.69;86.62;98623.30;113234;1190;22423;-59
2021/11/04 06:03:05;;;;;;;24.30;10.70;;;;;;;9.69;86.70;98616.86;113299;1196;25133;-61
2021/11/04 06:05:36;;;;;;;22.10;10.70;;;;;;;9.69;86.65;98608.86;113633;1190;25054;-59
2021/11/04 06:08:08;;;;;;;24.00;10.40;;;;;;;9.70;86.59;98607.13;113536;1195;22460;-59
2021/11/04 06:10:39;;;;;;;18.80;7.90;;;;;;;9.71;86.65;98598.77;113489;1196;25139;-59
2021/11/04 06:13:10;;;;;;;19.20;8.30;;;;;;;9.72;86.63;98590.20;113275;1194;25003;-59
2021/11/04 06:15:41;;;;;;;20.00;8.00;;;;;;;9.73;86.75;98590.80;114077;1190;24134;-59
2021/11/04 06:18:17;;;;;;;22.50;8.00;;;;;;;9.74;86.69;98587.45;113217;1195;22413;-60
2021/11/04 06:20:47;;;;;;;20.70;8.90;;;;;;;9.75;86.57;98582.13;113347;1190;22431;-60
2021/11/04 06:23:18;;;;;;;22.20;10.20;;;;;;;9.76;86.57;98579.48;113086;1190;22431;-60
2021/11/04 06:25:50;;;;;;;17.50;8.10;;;;;;;9.78;86.73;98586.63;113344;1196;22437;-60
2021/11/04 06:28:21;;;;;;;19.10;7.80;;;;;;;9.79;86.79;98591.23;113247;1196;25107;-60
2021/11/04 06:30:51;;;;;;;20.00;8.30;;;;;;;9.80;86.78;98593.86;113113;1196;24091;-60
2021/11/04 06:33:22;;;;;;;17.30;6.70;;;;;;;9.81;86.84;98592.15;113164;1196;24117;-60
2021/11/04 06:35:54;;;;;;;17.70;7.40;;;;;;;9.83;86.73;98594.45;113168;1196;22412;-65
2021/11/04 06:38:25;;;;;;;19.30;6.90;;;;;;;9.83;86.91;98595.33;113244;1196;24137;-61
2021/11/04 06:40:57;;;;;;;18.70;5.20;;;;;;;9.85;86.75;98592.84;113156;1196;24493;-63
2021/11/04 06:43:28;;;;;;;15.00;6.20;;;;;;;9.85;86.89;98583.11;113227;1196;22441;-60
2021/11/04 06:46:01;;;;;;;17.20;5.90;;;;;;;9.85;86.75;98583.19;113176;1190;22412;-60
2021/11/04 06:48:42;;;;;;;15.00;6.00;;;;;;;9.87;86.89;98583.39;113379;1196;25151;-60
2021/11/04 06:51:15;;;;;;;15.30;5.60;;;;;;;9.88;86.83;98583.59;113468;1190;22418;-60
2021/11/04 06:53:53;;;;;;;36.90;18.10;;;;;;;9.88;86.92;98585.21;113215;1196;24124;-60
2021/11/04 06:56:27;;;;;;;21.60;10.10;;;;;;;9.89;86.85;98584.95;113235;1196;22437;-60
2021/11/04 06:58:59;;;;;;;20.20;8.20;;;;;;;9.89;86.87;98584.70;113307;1196;22435;-61
2021/11/04 07:01:33;;;;;;;22.50;8.30;;;;;;;9.89;86.81;98577.90;113680;1196;22409;-60
2021/11/04 07:04:11;;;;;;;18.20;7.50;;;;;;;9.90;86.89;98561.13;113446;1196;25113;-60
2021/11/04 07:06:46;;;;;;;15.80;6.00;;;;;;;9.90;86.90;98565.68;113361;1196;22433;-60
2021/11/04 07:09:17;;;;;;;18.40;7.40;;;;;;;9.91;86.92;98559.91;113556;1196;27049;-59
2021/11/04 07:11:50;;;;;;;24.80;10.70;;;;;;;9.93;86.73;98547.55;113346;1196;22439;-59
2021/11/04 07:14:26;;;;;;;39.20;20.20;;;;;;;9.94;86.84;98539.52;114002;1195;24157;-60
2021/11/04 07:17:00;;;;;;;27.30;11.80;;;;;;;9.96;86.85;98540.67;114685;1196;25105;-61
2021/11/04 07:19:31;;;;;;;19.00;9.40;;;;;;;9.97;86.77;98540.92;113511;1189;22412;-60
2021/11/04 07:22:14;;;;;;;26.50;11.40;;;;;;;9.98;86.80;98537.93;113361;1196;25488;-61
2021/11/04 07:24:51;;;;;;;80.40;41.00;;;;;;;9.98;86.65;98533.22;113467;1196;23604;-61
2021/11/04 07:27:33;;;;;;;99.90;48.70;;;;;;;9.99;86.77;98530.83;113224;1196;25146;-60
2021/11/04 07:30:09;;;;;;;66.00;32.10;;;;;;;10.01;86.83;98518.55;113452;1181;24074;-62
2021/11/04 07:32:47;;;;;;;48.00;20.90;;;;;;;10.02;86.70;98519.35;113395;1196;24103;-60
2021/11/04 07:35:20;;;;;;;31.30;12.90;;;;;;;10.02;86.86;98523.55;113425;1190;22895;-60
2021/11/04 07:37:53;;;;;;;34.20;16.90;;;;;;;10.01;86.90;98521.13;113417;1196;24076;-60
2021/11/04 07:40:26;;;;;;;89.70;45.70;;;;;;;9.99;86.74;98522.56;113221;1196;24060;-60
2021/11/04 07:42:59;;;;;;;43.20;18.80;;;;;;;9.98;86.80;98506.86;113263;1190;22428;-60
2021/11/04 07:45:32;;;;;;;23.20;9.80;;;;;;;9.96;86.94;98498.10;113236;1190;26416;-60
2021/11/04 07:48:03;;;;;;;22.30;8.80;;;;;;;9.95;87.03;98491.92;113281;1196;22401;-60
2021/11/04 07:50:35;;;;;;;20.90;9.20;;;;;;;9.94;87.09;98493.75;113357;1196;22732;-60
2021/11/04 07:53:06;;;;;;;21.90;9.90;;;;;;;9.92;87.13;98488.65;113462;1194;22539;-60
2021/11/04 07:55:37;;;;;;;19.80;8.30;;;;;;;9.90;87.24;98486.07;113348;1196;25241;-59
2021/11/04 07:58:08;;;;;;;18.70;9.40;;;;;;;9.90;87.42;98485.66;113401;1196;22457;-59
2021/11/04 08:00:41;;;;;;;18.80;9.00;;;;;;;9.89;87.43;98486.63;113296;1190;24084;-60
2021/11/04 08:03:12;;;;;;;18.90;9.00;;;;;;;9.89;87.54;98473.91;113509;1196;22409;-60
2021/11/04 08:05:43;;;;;;;16.20;7.30;;;;;;;9.88;87.55;98453.30;113334;1196;25060;-63
2021/11/04 08:08:14;;;;;;;19.80;7.90;;;;;;;9.86;87.62;98450.93;113247;1196;22509;-62
2021/11/04 08:10:46;;;;;;;18.60;8.30;;;;;;;9.86;87.69;98443.08;113269;1195;24126;-61
2021/11/04 08:13:17;;;;;;;20.20;8.70;;;;;;;9.86;87.84;98441.40;113599;1196;22464;-62
2021/11/04 08:15:48;;;;;;;20.00;8.80;;;;;;;9.86;87.92;98442.02;113331;1196;24116;-61
2021/11/04 08:18:19;;;;;;;20.90;9.00;;;;;;;9.86;88.05;98455.14;113536;1196;24070;-61
2021/11/04 08:20:54;;;;;;;19.80;9.10;;;;;;;9.87;87.97;98448.15;113389;1196;22440;-61
2021/11/04 08:23:26;;;;;;;25.00;10.80;;;;;;;9.88;88.21;98439.02;113606;1196;25095;-64
2021/11/04 08:25:58;;;;;;;21.40;9.60;;;;;;;9.90;88.28;98416.85;113695;1196;22433;-59
2021/11/04 08:28:29;;;;;;;23.20;10.80;;;;;;;9.94;88.43;98416.01;113331;1196;26292;-62
2021/11/04 08:31:00;;;;;;;23.20;12.70;;;;;;;9.98;88.51;98426.96;113290;1196;22424;-62
2021/11/04 08:33:32;;;;;;;33.10;20.70;;;;;;;10.04;88.62;98429.56;113320;1196;22446;-62
2021/11/04 08:36:03;;;;;;;28.20;16.40;;;;;;;10.10;88.94;98433.48;113319;1196;24172;-61
2021/11/04 08:38:35;;;;;;;25.60;13.20;;;;;;;10.15;89.10;98424.53;113492;1195;25061;-62
2021/11/04 08:41:06;;;;;;;27.50;14.30;;;;;;;10.19;88.91;98411.73;113558;1196;24169;-63
2021/11/04 08:43:37;;;;;;;24.60;11.80;;;;;;;10.23;88.67;98398.21;113371;1196;22441;-60
2021/11/04 08:46:08;;;;;;;26.20;13.60;;;;;;;10.26;88.71;98398.33;113481;1196;22469;-60
2021/11/04 08:48:40;;;;;;;25.60;12.40;;;;;;;10.29;88.74;98396.27;113372;1193;22436;-61
2021/11/04 08:51:11;;;;;;;20.00;10.10;;;;;;;10.30;88.46;98381.86;114037;1196;22523;-60
2021/11/04 08:53:42;;;;;;;24.60;10.60;;;;;;;10.33;88.58;98380.88;113344;1196;22443;-62
2021/11/04 08:56:13;;;;;;;22.00;11.20;;;;;;;10.37;88.54;98378.60;113754;1196;26440;-60
2021/11/04 08:58:45;;;;;;;20.20;10.20;;;;;;;10.40;88.57;98372.27;113650;1194;24080;-60
2021/11/04 09:01:19;;;;;;;26.80;11.00;;;;;;;10.42;88.67;98376.42;113693;1196;22437;-60
2021/11/04 09:03:50;;;;;;;21.40;8.70;;;;;;;10.45;88.65;98372.88;113773;1196;22417;-60
2021/11/04 09:06:20;;;;;;;23.00;9.90;;;;;;;10.48;88.65;98373.05;113621;1190;22457;-60
2021/11/04 09:08:52;;;;;;;25.70;10.90;;;;;;;10.50;88.61;98367.55;113296;1196;23182;-60
2021/11/04 09:11:23;;;;;;;18.40;9.10;;;;;;;10.52;88.65;98363.88;113398;1181;22606;-60
2021/11/04 09:13:54;;;;;;;25.80;10.20;;;;;;;10.54;88.65;98362.29;113233;1196;22427;-60
2021/11/04 09:16:25;;;;;;;23.40;10.80;;;;;;;10.56;88.81;98360.95;113218;1196;22996;-60
2021/11/04 09:18:56;;;;;;;20.00;9.20;;;;;;;10.58;88.88;98365.23;113451;1196;22452;-60
2021/11/04 09:21:27;;;;;;;18.70;8.30;;;;;;;10.58;88.82;98366.64;113170;1196;25462;-61
2021/11/04 09:23:58;;;;;;;24.00;9.70;;;;;;;10.59;88.62;98361.71;117536;1194;22979;-60
2021/11/04 09:26:30;;;;;;;22.50;7.90;;;;;;;10.60;88.59;98355.83;117575;1195;23044;-61
2021/11/04 09:29:01;;;;;;;25.40;9.80;;;;;;;10.61;88.73;98355.61;117536;1196;23449;-61
2021/11/04 09:31:33;;;;;;;21.00;8.70;;;;;;;10.62;88.71;98352.65;117543;1196;22185;-60
2021/11/04 09:34:04;;;;;;;24.20;9.20;;;;;;;10.63;88.73;98354.07;117516;1195;22168;-60
2021/11/04 09:36:35;;;;;;;27.00;9.00;;;;;;;10.64;88.79;98353.90;117554;1196;22340;-60
2021/11/04 09:39:07;;;;;;;21.00;8.60;;;;;;;10.65;88.67;98357.39;117529;1196;22989;-60
2021/11/04 09:41:38;;;;;;;20.30;8.90;;;;;;;10.67;88.94;98350.94;117533;1193;22333;-60
2021/11/04 09:44:11;;;;;;;21.00;7.60;;;;;;;10.69;88.85;98348.33;117539;1196;22373;-59
2021/11/04 09:46:42;;;;;;;19.30;8.30;;;;;;;10.70;88.75;98342.33;117560;1196;22779;-60
2021/11/04 09:49:13;;;;;;;17.70;8.00;;;;;;;10.73;88.91;98340.67;117547;1195;22152;-60
2021/11/04 09:51:45;;;;;;;22.00;8.90;;;;;;;10.76;89.00;98338.80;117536;1196;22317;-60
2021/11/04 09:54:16;;;;;;;21.90;8.30;;;;;;;10.79;88.94;98346.79;117527;1195;22370;-60
2021/11/04 09:56:46;;;;;;;19.00;6.70;;;;;;;10.82;88.86;98338.33;117534;1196;22265;-59
2021/11/04 09:59:17;;;;;;;17.80;8.20;;;;;;;10.85;88.64;98328.95;117524;1195;22400;-60
2021/11/04 10:01:50;;;;;;;23.30;8.20;;;;;;;10.90;88.85;98333.24;117579;1195;22302;-60
2021/11/04 10:04:38;;;;;;;22.30;6.70;;;;;;;10.94;88.84;98327.51;117516;1196;22116;-60
2021/11/04 10:07:09;;;;;;;21.70;6.60;;;;;;;11.01;89.10;98320.15;117494;1196;22894;-60
2021/11/04 10:09:41;;;;;;;19.20;6.90;;;;;;;11.06;88.99;98319.92;117549;1195;22294;-59
2021/11/04 10:12:14;;;;;;;18.90;7.10;;;;;;;11.16;89.30;98329.64;117578;1195;22302;-59
2021/11/04 10:14:45;;;;;;;20.40;8.20;;;;;;;11.23;89.13;98332.18;117521;1195;23118;-59
2021/11/04 10:17:35;;;;;;;20.20;7.30;;;;;;;11.32;89.20;98325.19;117531;1196;22270;-59
2021/11/04 10:20:16;;;;;;;13.20;5.00;;;;;;;11.42;89.17;98322.10;117539;1196;22319;-62
2021/11/04 10:22:58;;;;;;;18.30;6.80;;;;;;;11.51;89.02;98324.70;117585;1196;22378;-61
2021/11/04 10:25:29;;;;;;;15.60;6.70;;;;;;;11.57;88.94;98330.70;117570;1196;22759;-59
2021/11/04 10:28:21;;;;;;;18.20;6.60;;;;;;;11.62;88.79;98320.23;117529;1196;23733;-59
2021/11/04 10:30:52;;;;;;;17.20;6.30;;;;;;;11.67;88.61;98311.73;117531;1195;22310;-59
2021/11/04 10:33:29;;;;;;;16.90;5.80;;;;;;;11.74;88.68;98293.36;117546;1196;22330;-58
2021/11/04 10:36:04;;;;;;;16.80;6.50;;;;;;;11.82;88.78;98295.97;117544;1196;22775;-59
2021/11/04 10:38:47;;;;;;;18.90;7.70;;;;;;;11.91;88.81;98296.52;117552;1191;22316;-58
2021/11/04 10:41:27;;;;;;;18.10;6.70;;;;;;;12.02;88.84;98304.77;117546;1196;22214;-57
2021/11/04 10:44:02;;;;;;;24.10;7.70;;;;;;;12.12;88.77;98320.77;117557;1196;22138;-59
2021/11/04 10:46:39;;;;;;;18.00;7.00;;;;;;;12.21;88.59;98313.88;117557;1196;22107;-59
2021/11/04 10:49:11;;;;;;;23.40;6.70;;;;;;;12.31;88.42;98311.58;117528;1194;22180;-59
2021/11/04 10:51:44;;;;;;;18.60;6.30;;;;;;;12.40;88.27;98308.96;117550;1196;22236;-59
2021/11/04 10:54:17;;;;;;;16.50;6.20;;;;;;;12.49;88.32;98312.95;117529;1195;22569;-59
2021/11/04 10:56:51;;;;;;;19.60;6.30;;;;;;;12.57;88.24;98310.45;117540;1196;22329;-59
2021/11/04 10:59:24;;;;;;;17.00;6.20;;;;;;;12.64;87.89;98304.86;117522;1196;22311;-60
2021/11/04 11:01:56;;;;;;;19.10;6.00;;;;;;;12.70;87.89;98305.52;117555;1196;22266;-59
2021/11/04 11:04:34;;;;;;;18.20;5.70;;;;;;;12.75;87.74;98307.78;117532;1194;22298;-59
2021/11/04 11:07:06;;;;;;;17.80;6.00;;;;;;;12.80;87.51;98308.30;117520;1196;22289;-59
2021/11/04 11:09:37;;;;;;;17.50;5.30;;;;;;;12.84;87.37;98306.64;117535;1196;22854;-59
2021/11/04 11:12:09;;;;;;;17.30;5.70;;;;;;;12.88;87.32;98310.64;117531;1195;22974;-59
2021/11/04 11:14:41;;;;;;;18.60;6.30;;;;;;;12.90;87.25;98304.55;117556;1196;22346;-59
2021/11/04 11:17:13;;;;;;;14.70;4.90;;;;;;;12.93;87.25;98301.62;117523;1196;23267;-59
2021/11/04 11:19:45;;;;;;;17.30;5.60;;;;;;;12.96;87.35;98297.79;117553;1194;22318;-59
2021/11/04 11:22:18;;;;;;;22.90;6.10;;;;;;;13.00;87.22;98294.33;117565;1196;22331;-59
2021/11/04 11:24:49;;;;;;;14.80;4.50;;;;;;;13.06;87.39;98292.05;117555;1196;22349;-59
2021/11/04 11:27:24;;;;;;;15.60;5.30;;;;;;;13.09;87.21;98294.52;117551;1196;22135;-59
2021/11/04 11:29:55;;;;;;;15.30;4.90;;;;;;;13.13;87.43;98291.84;117537;1194;22941;-59
2021/11/04 11:32:28;;;;;;;14.10;3.90;;;;;;;13.17;87.73;98297.20;117565;1196;22817;-59
2021/11/04 11:35:19;;;;;;;16.00;4.50;;;;;;;13.23;87.91;98296.51;117558;1196;23054;-59
2021/11/04 11:38:06;;;;;;;13.20;4.30;;;;;;;13.28;88.02;98284.05;117590;1196;22182;-59
2021/11/04 11:40:38;;;;;;;15.00;5.00;;;;;;;13.33;87.99;98276.76;117557;1195;22124;-59
2021/11/04 11:43:12;;;;;;;15.50;4.90;;;;;;;13.39;87.78;98282.94;117550;1190;22302;-59
2021/11/04 11:46:04;;;;;;;15.80;4.10;;;;;;;13.44;87.61;98285.67;117542;1190;22247;-58